Time;durP1;ratioP1;P1;durP2;ratioP2;P2;SDS_P1;SDS_P2;PMS_P1;PMS_P2;Temp;Humidity;BMP_temperature;BMP_pressure;BME280_temperature;BME280_humidity;BME280_pressure;Samples;Min_cycle;Max_cycle;Signal;HPM_P1;HPM_P2
2022/08/06 00:00:50;;;;;;;9.18;3.33;;;;;;;14.31;71.90;100138.56;5071350;28;20021;-55
2022/08/06 00:03:16;;;;;;;10.80;3.75;;;;;;;14.30;71.46;100136.91;5070953;28;20028;-56
2022/08/06 00:05:41;;;;;;;6.55;3.33;;;;;;;14.33;71.86;100136.44;5072671;28;20082;-56
2022/08/06 00:08:07;;;;;;;10.80;3.33;;;;;;;14.28;71.36;100139.03;5075054;28;20021;-55
2022/08/06 00:10:32;;;;;;;14.07;3.33;;;;;;;14.32;70.64;100137.47;5075485;28;20119;-56
2022/08/06 00:12:58;;;;;;;8.85;3.60;;;;;;;14.24;71.41;100140.59;5074862;28;20025;-55
2022/08/06 00:15:23;;;;;;;6.95;2.97;;;;;;;14.30;72.42;100139.59;5074745;28;20044;-55
2022/08/06 00:17:49;;;;;;;11.85;3.70;;;;;;;14.28;71.47;100136.34;5074504;28;20043;-55
2022/08/06 00:20:15;;;;;;;9.20;3.67;;;;;;;14.18;71.60;100141.56;5082012;28;20029;-56
2022/08/06 00:22:41;;;;;;;11.52;3.53;;;;;;;14.20;71.82;100142.13;5074938;28;20017;-55
2022/08/06 00:25:12;;;;;;;14.05;3.75;;;;;;;14.29;72.12;100139.84;5074681;28;20452;-55
2022/08/06 00:27:38;;;;;;;15.73;3.60;;;;;;;14.17;72.04;100134.53;5074599;28;20054;-55
2022/08/06 00:30:05;;;;;;;10.80;3.97;;;;;;;14.20;71.56;100136.72;5073804;28;20028;-54
2022/08/06 00:32:30;;;;;;;8.32;4.40;;;;;;;14.11;72.86;100141.72;5073302;28;20025;-55
2022/08/06 00:34:56;;;;;;;12.10;3.53;;;;;;;14.02;72.83;100141.28;5074183;28;20032;-55
2022/08/06 00:37:21;;;;;;;8.27;3.58;;;;;;;14.03;73.63;100142.94;5074930;28;20386;-56
2022/08/06 00:39:46;;;;;;;9.10;3.70;;;;;;;13.97;72.84;100140.38;5074780;28;20393;-55
2022/08/06 00:42:12;;;;;;;18.55;4.47;;;;;;;13.94;72.91;100133.59;5074359;28;20098;-56
2022/08/06 00:44:37;;;;;;;15.55;3.80;;;;;;;13.86;73.47;100144.78;5074608;28;20025;-55
2022/08/06 00:47:03;;;;;;;12.50;3.97;;;;;;;13.79;73.78;100136.03;5074413;28;20022;-55
2022/08/06 00:49:28;;;;;;;9.90;4.45;;;;;;;13.76;73.82;100152.69;5074225;28;20036;-54
2022/08/06 00:51:54;;;;;;;9.73;3.50;;;;;;;13.69;74.47;100146.63;5074543;28;20020;-55
2022/08/06 00:54:19;;;;;;;10.65;3.78;;;;;;;13.59;74.69;100153.44;5074246;28;20028;-56
2022/08/06 00:56:45;;;;;;;12.77;4.53;;;;;;;13.68;74.39;100153.88;5074411;28;20364;-57
2022/08/06 00:59:10;;;;;;;11.75;4.32;;;;;;;13.61;74.58;100152.38;5077945;28;21273;-56
2022/08/06 01:01:36;;;;;;;14.98;3.92;;;;;;;13.55;74.95;100149.59;5074059;28;20060;-56
2022/08/06 01:04:02;;;;;;;13.05;4.25;;;;;;;13.61;75.04;100150.50;5072397;28;20097;-55
2022/08/06 01:06:27;;;;;;;9.35;3.90;;;;;;;13.55;76.46;100155.00;5073733;28;20386;-56
2022/08/06 01:08:52;;;;;;;15.70;4.30;;;;;;;13.51;75.40;100159.22;5074056;28;20036;-55
2022/08/06 01:11:18;;;;;;;8.52;3.95;;;;;;;13.38;75.76;100160.28;5072587;28;20032;-55
2022/08/06 01:13:43;;;;;;;10.95;4.13;;;;;;;13.31;75.92;100151.53;5073675;28;20032;-55
2022/08/06 01:16:21;;;;;;;15.27;4.25;;;;;;;13.34;76.46;100155.63;5073626;28;20040;-55
2022/08/06 01:19:27;;;;;;;13.65;4.32;;;;;;;13.26;76.67;100164.03;5071985;28;20433;-55
2022/08/06 01:22:01;;;;;;;7.47;3.85;;;;;;;13.33;75.94;100160.19;5066055;28;20037;-56
2022/08/06 01:24:34;;;;;;;10.70;4.47;;;;;;;13.27;76.51;100177.28;5079899;28;20032;-55
2022/08/06 01:27:15;;;;;;;10.13;4.70;;;;;;;13.16;77.09;100168.16;5083109;28;20025;-56
2022/08/06 01:29:41;;;;;;;9.70;4.38;;;;;;;13.07;77.55;100163.38;5073236;28;20421;-55
2022/08/06 01:32:09;;;;;;;14.35;4.97;;;;;;;13.10;76.89;100176.34;5072271;28;20020;-55
2022/08/06 01:34:53;;;;;;;15.50;4.55;;;;;;;13.00;77.48;100176.94;5071634;28;20367;-54
2022/08/06 01:37:54;;;;;;;9.80;4.30;;;;;;;13.00;77.23;100190.38;5073211;28;20376;-55
2022/08/06 01:40:23;;;;;;;12.73;4.68;;;;;;;13.00;77.47;100198.47;5041604;28;20047;-55
2022/08/06 01:42:48;;;;;;;20.73;5.85;;;;;;;13.02;78.45;100190.97;5071910;28;20089;-56
2022/08/06 01:45:15;;;;;;;14.82;4.47;;;;;;;12.98;77.83;100192.53;5071870;28;20032;-55
2022/08/06 01:47:42;;;;;;;18.58;5.45;;;;;;;12.98;78.39;100195.22;5071720;28;20115;-55
2022/08/06 01:50:07;;;;;;;15.70;5.00;;;;;;;12.91;78.06;100195.31;5077573;28;20085;-55
2022/08/06 01:52:35;;;;;;;13.82;4.50;;;;;;;12.86;77.85;100194.38;5073278;28;20033;-55
2022/08/06 01:55:01;;;;;;;13.02;5.07;;;;;;;12.87;77.46;100199.50;5055470;28;20194;-55
2022/08/06 01:57:26;;;;;;;13.05;4.88;;;;;;;12.85;78.57;100203.50;5055013;28;20028;-55
2022/08/06 01:59:53;;;;;;;14.10;4.80;;;;;;;12.90;77.62;100209.00;5072839;28;20089;-55
2022/08/06 02:02:20;;;;;;;19.50;5.20;;;;;;;12.88;77.68;100211.09;5071310;28;20029;-56
2022/08/06 02:04:46;;;;;;;14.50;5.00;;;;;;;12.84;77.50;100208.06;5068141;28;20055;-55
2022/08/06 02:07:12;;;;;;;21.33;5.18;;;;;;;12.84;77.71;100216.13;5071844;28;20475;-55
2022/08/06 02:09:37;;;;;;;10.23;4.68;;;;;;;12.76;77.89;100221.06;5071599;28;20086;-55
2022/08/06 02:12:06;;;;;;;16.35;5.20;;;;;;;12.69;77.74;100223.84;5071443;28;20048;-56
2022/08/06 02:14:34;;;;;;;11.52;4.68;;;;;;;12.70;78.09;100229.00;5077998;28;20020;-55
2022/08/06 02:17:00;;;;;;;17.35;5.22;;;;;;;12.73;77.37;100231.22;5077336;28;20032;-55
2022/08/06 02:19:25;;;;;;;16.67;5.00;;;;;;;12.77;78.23;100236.13;5070743;28;20036;-55
2022/08/06 02:21:50;;;;;;;13.25;5.43;;;;;;;12.81;78.28;100237.31;5071227;28;20024;-55
2022/08/06 02:24:16;;;;;;;7.68;4.45;;;;;;;12.67;78.34;100240.19;5071601;28;20029;-55
2022/08/06 02:26:41;;;;;;;13.45;4.75;;;;;;;12.70;78.05;100237.06;5072990;28;20020;-56
2022/08/06 02:29:08;;;;;;;11.43;4.80;;;;;;;12.76;78.37;100247.94;5070706;28;20029;-56
2022/08/06 02:31:33;;;;;;;10.40;4.53;;;;;;;12.64;77.93;100243.34;5071252;28;20024;-56
2022/08/06 02:33:59;;;;;;;19.52;5.13;;;;;;;12.52;78.51;100240.63;5072058;28;20119;-55
2022/08/06 02:36:29;;;;;;;12.73;4.72;;;;;;;12.43;79.11;100241.19;5071228;28;20031;-55
2022/08/06 02:39:08;;;;;;;18.17;4.53;;;;;;;12.50;80.27;100247.28;5071181;28;20032;-54
2022/08/06 02:41:58;;;;;;;22.77;5.23;;;;;;;12.56;78.31;100251.78;5071179;28;20078;-55
2022/08/06 02:44:32;;;;;;;13.10;4.60;;;;;;;12.47;78.29;100245.88;5049905;28;20368;-54
2022/08/06 02:47:00;;;;;;;11.63;4.78;;;;;;;12.47;78.60;100243.19;5071416;28;20056;-55
2022/08/06 02:49:26;;;;;;;30.45;5.43;;;;;;;12.26;79.06;100254.50;5053668;28;20119;-56
2022/08/06 02:52:05;;;;;;;15.00;4.63;;;;;;;12.41;78.23;100248.69;5072417;28;20391;-55
2022/08/06 02:54:34;;;;;;;10.23;4.72;;;;;;;12.42;78.11;100261.88;5054421;28;20032;-55
2022/08/06 02:57:02;;;;;;;15.32;5.13;;;;;;;12.28;78.60;100255.91;5070893;28;20075;-55
2022/08/06 02:59:28;;;;;;;13.10;5.53;;;;;;;12.15;79.49;100255.25;5070576;28;20068;-55
2022/08/06 03:01:59;;;;;;;14.95;4.80;;;;;;;12.25;78.91;100256.34;5053929;28;20471;-54
2022/08/06 03:04:25;;;;;;;7.25;4.28;;;;;;;12.19;79.64;100259.13;5070667;28;20043;-54
2022/08/06 03:06:50;;;;;;;14.95;6.80;;;;;;;12.27;80.06;100259.63;5070881;28;20107;-53
2022/08/06 03:09:16;;;;;;;11.35;5.13;;;;;;;12.34;80.26;100250.66;5070569;28;20441;-55
2022/08/06 03:11:42;;;;;;;11.55;5.35;;;;;;;12.42;79.89;100258.38;5060328;28;20037;-55
2022/08/06 03:14:08;;;;;;;16.23;5.15;;;;;;;12.45;78.27;100260.59;5070746;28;20020;-55
2022/08/06 03:16:36;;;;;;;12.73;4.90;;;;;;;12.34;78.42;100272.16;5066275;28;20457;-55
2022/08/06 03:19:02;;;;;;;20.00;4.85;;;;;;;11.98;81.10;100276.53;5069807;28;20028;-55
2022/08/06 03:21:28;;;;;;;11.00;4.82;;;;;;;12.16;79.73;100273.03;5076040;28;20040;-55
2022/08/06 03:23:53;;;;;;;14.52;4.88;;;;;;;12.21;80.74;100270.47;5073730;28;20040;-55
2022/08/06 03:26:19;;;;;;;15.70;5.30;;;;;;;12.12;80.17;100272.66;5070546;28;20055;-56
2022/08/06 03:28:44;;;;;;;11.93;5.13;;;;;;;12.11;80.74;100276.41;5075331;28;20616;-54
2022/08/06 03:31:09;;;;;;;11.90;4.65;;;;;;;12.10;81.96;100274.75;5053763;28;20020;-55
2022/08/06 03:33:35;;;;;;;13.02;5.30;;;;;;;12.04;80.98;100268.41;5075456;28;20039;-54
2022/08/06 03:36:01;;;;;;;14.45;5.28;;;;;;;12.08;81.95;100271.44;5071345;28;20021;-56
2022/08/06 03:38:26;;;;;;;14.75;4.53;;;;;;;12.06;80.59;100268.19;5071519;28;20035;-55
2022/08/06 03:40:55;;;;;;;16.95;5.18;;;;;;;12.01;81.39;100276.13;5073844;28;20028;-55
2022/08/06 03:43:21;;;;;;;15.82;5.30;;;;;;;12.01;81.07;100281.50;5074771;28;20066;-55
2022/08/06 03:45:53;;;;;;;11.63;5.13;;;;;;;11.98;82.16;100279.22;5074734;28;20020;-54
2022/08/06 03:48:21;;;;;;;14.02;5.30;;;;;;;11.90;81.54;100282.22;5074703;28;20028;-55
2022/08/06 03:50:48;;;;;;;19.80;5.05;;;;;;;11.92;81.04;100272.09;5057457;28;20060;-54
2022/08/06 03:53:18;;;;;;;12.75;4.53;;;;;;;12.11;79.69;100281.78;5073733;28;20033;-53
2022/08/06 03:55:44;;;;;;;10.23;4.82;;;;;;;12.08;80.91;100287.56;5074975;28;20146;-54
2022/08/06 03:58:11;;;;;;;13.30;5.32;;;;;;;12.05;80.86;100290.72;5057437;28;20037;-54
2022/08/06 04:00:40;;;;;;;12.25;4.50;;;;;;;11.96;80.86;100300.16;5057508;28;20471;-55
2022/08/06 04:03:06;;;;;;;14.73;5.10;;;;;;;11.83;81.74;100290.31;5057264;28;20035;-55
2022/08/06 04:05:31;;;;;;;14.20;4.70;;;;;;;11.78;82.25;100291.03;5073919;28;20052;-54
2022/08/06 04:07:58;;;;;;;14.07;5.20;;;;;;;11.61;82.51;100293.47;5057017;28;20360;-55
2022/08/06 04:10:25;;;;;;;14.25;5.15;;;;;;;11.58;84.23;100293.94;5057401;28;20064;-54
2022/08/06 04:12:50;;;;;;;26.08;5.35;;;;;;;11.74;84.06;100307.81;5060850;28;20024;-54
2022/08/06 04:15:16;;;;;;;11.18;5.20;;;;;;;11.97;82.43;100307.16;5076327;28;20493;-54
2022/08/06 04:17:42;;;;;;;18.45;6.32;;;;;;;11.78;81.62;100301.78;5073421;28;20023;-55
2022/08/06 04:20:09;;;;;;;12.23;4.57;;;;;;;11.96;81.91;100305.53;5056752;28;20033;-55
2022/08/06 04:22:35;;;;;;;12.55;5.47;;;;;;;12.02;80.83;100304.59;5074871;28;20020;-56
2022/08/06 04:25:00;;;;;;;13.30;5.32;;;;;;;12.21;80.27;100308.91;5074885;28;20059;-54
2022/08/06 04:27:26;;;;;;;8.93;4.68;;;;;;;12.30;80.09;100312.94;5073610;28;20027;-57
2022/08/06 04:29:52;;;;;;;13.05;4.72;;;;;;;12.29;80.17;100311.28;5073381;28;20390;-55
2022/08/06 04:32:17;;;;;;;14.98;4.50;;;;;;;12.40;81.24;100311.56;5057103;28;20036;-54
2022/08/06 04:34:42;;;;;;;16.40;4.72;;;;;;;12.37;81.94;100312.03;5056511;28;20541;-55
2022/08/06 04:37:08;;;;;;;11.85;4.65;;;;;;;12.38;79.96;100314.50;5073382;28;20048;-55
2022/08/06 04:39:33;;;;;;;20.35;5.25;;;;;;;12.41;80.61;100318.59;5074404;28;20056;-54
2022/08/06 04:41:59;;;;;;;9.95;4.60;;;;;;;12.50;79.93;100320.75;5074493;28;20031;-54
2022/08/06 04:44:27;;;;;;;15.98;4.45;;;;;;;12.51;80.11;100319.69;5073364;28;20025;-57
2022/08/06 04:46:53;;;;;;;12.43;4.32;;;;;;;12.44;79.58;100328.88;5073216;28;20016;-55
2022/08/06 04:49:18;;;;;;;13.57;5.07;;;;;;;12.51;79.84;100318.88;5056254;28;20032;-54
2022/08/06 04:51:47;;;;;;;9.82;4.35;;;;;;;12.64;78.67;100328.59;5072426;28;20024;-53
2022/08/06 04:54:13;;;;;;;8.75;4.18;;;;;;;12.65;79.13;100328.34;5072843;28;20229;-56
2022/08/06 04:56:39;;;;;;;13.02;4.60;;;;;;;12.77;78.51;100333.78;5072990;28;20040;-56
2022/08/06 04:59:05;;;;;;;12.25;4.40;;;;;;;13.00;78.00;100337.56;5072982;28;20031;-55
2022/08/06 05:01:31;;;;;;;12.00;5.05;;;;;;;12.89;77.85;100334.63;5074085;28;20039;-55
2022/08/06 05:03:56;;;;;;;13.32;5.32;;;;;;;13.15;77.04;100336.09;5073892;28;20044;-56
2022/08/06 05:06:43;;;;;;;12.52;4.38;;;;;;;13.51;76.71;100347.72;5074269;28;20024;-55
2022/08/06 05:09:11;;;;;;;11.02;4.10;;;;;;;13.62;74.58;100348.78;5078740;28;20114;-56
2022/08/06 05:11:40;;;;;;;10.23;4.28;;;;;;;13.74;74.11;100348.78;5074346;28;20056;-56
2022/08/06 05:14:19;;;;;;;13.38;4.40;;;;;;;13.73;74.24;100347.16;5072393;28;20028;-56
2022/08/06 05:16:45;;;;;;;13.57;5.20;;;;;;;14.33;72.32;100345.97;5073897;28;20162;-56
2022/08/06 05:19:15;;;;;;;13.90;4.28;;;;;;;15.60;68.48;100339.22;5073518;28;20057;-55
2022/08/06 05:21:40;;;;;;;13.32;4.15;;;;;;;17.08;61.62;100356.38;5076342;28;20031;-56
2022/08/06 05:24:06;;;;;;;8.73;3.22;;;;;;;18.11;57.34;100355.16;5080897;28;20391;-57
2022/08/06 05:26:33;;;;;;;11.05;3.20;;;;;;;16.78;62.57;100360.44;5079013;28;20394;-56
2022/08/06 05:28:58;;;;;;;13.27;3.60;;;;;;;16.52;64.06;100351.19;5073480;28;20506;-56
2022/08/06 05:31:31;;;;;;;10.20;3.58;;;;;;;16.74;63.78;100367.41;5072245;28;20028;-55
2022/08/06 05:33:56;;;;;;;14.10;3.67;;;;;;;19.57;54.79;100371.16;5073068;28;20016;-57
2022/08/06 05:36:22;;;;;;;13.15;3.97;;;;;;;21.18;49.31;100381.06;5073617;28;20070;-56
2022/08/06 05:38:47;;;;;;;8.88;3.42;;;;;;;19.07;55.89;100364.66;5073371;28;20039;-56
2022/08/06 05:41:13;;;;;;;12.90;3.67;;;;;;;18.80;55.36;100373.06;5073655;28;20039;-57
2022/08/06 05:43:39;;;;;;;13.20;3.72;;;;;;;18.95;57.17;100380.41;5073270;28;20035;-56
2022/08/06 05:46:10;;;;;;;9.98;3.50;;;;;;;21.82;47.01;100390.06;5073517;28;20032;-56
2022/08/06 05:48:55;;;;;;;10.85;3.50;;;;;;;22.23;46.17;100384.97;5071972;28;20399;-56
2022/08/06 05:51:37;;;;;;;11.77;3.85;;;;;;;22.95;44.81;100395.72;5072026;28;20031;-57
2022/08/06 05:54:12;;;;;;;9.27;3.42;;;;;;;23.63;42.85;100393.53;5072894;28;20024;-56
2022/08/06 05:56:40;;;;;;;13.48;3.83;;;;;;;23.08;44.16;100394.19;5072087;28;20446;-54
2022/08/06 05:59:26;;;;;;;13.32;3.95;;;;;;;24.19;42.43;100383.44;5059673;28;20055;-57
2022/08/06 06:01:51;;;;;;;11.93;3.67;;;;;;;21.73;47.25;100395.31;5076078;28;20418;-55
2022/08/06 06:04:17;;;;;;;11.73;4.05;;;;;;;22.71;45.45;100389.50;5072491;28;20044;-56
2022/08/06 06:06:43;;;;;;;15.75;4.53;;;;;;;23.51;43.95;100391.28;5071475;28;20489;-56
2022/08/06 06:09:09;;;;;;;14.00;3.60;;;;;;;23.11;44.57;100388.09;5071377;28;20154;-55
2022/08/06 06:11:34;;;;;;;16.30;4.15;;;;;;;23.04;43.96;100399.44;5071549;28;20107;-56
2022/08/06 06:14:00;;;;;;;14.30;4.00;;;;;;;21.03;47.43;100395.63;5078609;28;20154;-56
2022/08/06 06:16:44;;;;;;;19.40;4.20;;;;;;;22.70;45.78;100393.38;5071501;28;20036;-56
2022/08/06 06:19:27;;;;;;;11.65;3.75;;;;;;;21.67;47.28;100404.66;5071113;28;20043;-55
2022/08/06 06:22:17;;;;;;;11.65;3.80;;;;;;;23.03;43.77;100405.19;5072526;28;20033;-56
2022/08/06 06:24:48;;;;;;;8.43;3.40;;;;;;;23.90;42.46;100398.25;5079018;28;20032;-55
2022/08/06 06:27:18;;;;;;;13.45;3.63;;;;;;;24.90;40.65;100397.56;5071154;28;20020;-56
2022/08/06 06:30:12;;;;;;;14.80;3.75;;;;;;;23.37;42.43;100407.66;5071209;28;20031;-56
2022/08/06 06:33:02;;;;;;;10.40;3.17;;;;;;;22.68;44.72;100412.78;5064455;28;20471;-55
2022/08/06 06:35:30;;;;;;;16.80;3.80;;;;;;;23.57;43.02;100400.22;5071314;28;20078;-55
2022/08/06 06:38:05;;;;;;;10.27;3.90;;;;;;;24.02;41.87;100400.50;5072396;28;20060;-54
2022/08/06 06:40:39;;;;;;;11.20;3.63;;;;;;;23.85;42.81;100401.91;5071228;28;20037;-56
2022/08/06 06:43:18;;;;;;;17.75;3.95;;;;;;;24.06;41.87;100410.56;5071311;28;20035;-56
2022/08/06 06:46:16;;;;;;;13.38;3.65;;;;;;;23.71;42.99;100405.69;5070401;28;20483;-56
2022/08/06 06:48:42;;;;;;;12.82;4.20;;;;;;;21.64;46.61;100407.94;5080440;28;20089;-55
2022/08/06 06:51:10;;;;;;;15.45;3.80;;;;;;;22.81;44.31;100408.50;5071051;28;20043;-55
2022/08/06 06:53:39;;;;;;;14.50;3.70;;;;;;;22.90;44.27;100405.91;5070677;28;20375;-55
2022/08/06 06:56:05;;;;;;;17.20;4.32;;;;;;;23.74;42.88;100403.22;5053639;28;20498;-55
2022/08/06 06:58:40;;;;;;;13.27;3.47;;;;;;;21.91;45.57;100410.13;5075792;28;20032;-55
2022/08/06 07:01:08;;;;;;;9.40;3.30;;;;;;;24.92;42.04;100412.56;5054272;28;20028;-55
2022/08/06 07:03:34;;;;;;;9.27;3.50;;;;;;;25.32;39.48;100407.25;5069802;28;20029;-57
2022/08/06 07:05:59;;;;;;;8.60;3.03;;;;;;;24.51;41.58;100412.66;5070951;28;20825;-54
2022/08/06 07:08:26;;;;;;;8.75;2.90;;;;;;;26.29;37.96;100414.84;5054250;28;20421;-54
2022/08/06 07:10:51;;;;;;;11.85;3.45;;;;;;;26.27;38.61;100417.09;5054045;28;20043;-56
2022/08/06 07:13:17;;;;;;;13.90;2.80;;;;;;;25.73;38.07;100425.41;5070520;28;20399;-56
2022/08/06 07:15:43;;;;;;;12.95;2.97;;;;;;;24.44;41.72;100421.28;5053520;28;20025;-56
2022/08/06 07:18:08;;;;;;;8.30;2.80;;;;;;;25.33;39.82;100427.25;5069785;28;20024;-56
2022/08/06 07:20:34;;;;;;;10.23;2.90;;;;;;;27.00;37.13;100422.09;5071890;28;20498;-56
2022/08/06 07:23:08;;;;;;;10.77;2.42;;;;;;;27.14;36.85;100428.25;5070475;28;20032;-56
2022/08/06 07:25:40;;;;;;;8.18;2.60;;;;;;;25.63;39.19;100424.88;5070607;28;20063;-56
2022/08/06 07:28:05;;;;;;;5.30;2.50;;;;;;;26.18;38.29;100424.50;5070156;28;20439;-55
2022/08/06 07:30:32;;;;;;;8.38;2.63;;;;;;;27.90;35.24;100424.09;5054342;28;20040;-56
2022/08/06 07:32:58;;;;;;;8.25;2.70;;;;;;;28.10;34.77;100428.84;5078771;28;20026;-56
2022/08/06 07:35:24;;;;;;;14.10;3.45;;;;;;;26.27;36.30;100439.09;5053790;28;20382;-55
2022/08/06 07:38:09;;;;;;;9.88;2.85;;;;;;;25.34;38.46;100435.19;5074074;28;20021;-56
2022/08/06 07:40:43;;;;;;;9.05;2.72;;;;;;;23.83;41.97;100431.50;5070203;28;20086;-55
2022/08/06 07:43:20;;;;;;;10.70;3.22;;;;;;;25.05;38.58;100432.03;5071648;28;20021;-55
2022/08/06 07:45:46;;;;;;;8.23;2.78;;;;;;;27.20;35.99;100432.47;5070288;28;20025;-54
2022/08/06 07:48:12;;;;;;;8.05;2.40;;;;;;;26.08;38.96;100438.53;5070074;28;20020;-56
2022/08/06 07:50:39;;;;;;;7.78;2.95;;;;;;;25.76;38.04;100440.44;5053492;28;20554;-55
2022/08/06 07:53:05;;;;;;;10.77;2.60;;;;;;;25.09;39.20;100433.03;5070300;28;20024;-54
2022/08/06 07:55:30;;;;;;;10.25;2.90;;;;;;;23.82;41.59;100427.16;5070092;28;20032;-55
2022/08/06 07:57:56;;;;;;;5.75;1.92;;;;;;;23.83;39.44;100426.03;5070089;28;20409;-54
2022/08/06 08:00:22;;;;;;;7.97;2.10;;;;;;;20.63;46.39;100419.28;5071492;28;20028;-55
2022/08/06 08:06:17;;;;;;;5.65;2.25;;;;;;;22.61;43.46;100428.72;5069583;28;20020;-55
2022/08/06 08:08:18;;;;;;;6.93;2.00;;;;;;;22.59;41.61;100431.75;5071222;28;20115;-54
2022/08/06 08:10:43;;;;;;;7.05;2.08;;;;;;;23.35;40.70;100436.44;5071729;28;20025;-54
2022/08/06 08:13:10;;;;;;;10.32;2.38;;;;;;;23.59;42.00;100431.66;5070047;28;20402;-54
2022/08/06 08:15:36;;;;;;;9.93;2.20;;;;;;;24.14;40.01;100439.16;5071711;28;20070;-55
2022/08/06 08:18:03;;;;;;;9.90;2.00;;;;;;;21.83;45.27;100436.13;5070691;28;20033;-54
2022/08/06 08:20:29;;;;;;;5.57;2.20;;;;;;;21.49;44.37;100436.16;5073367;28;20152;-55
2022/08/06 08:22:54;;;;;;;7.10;2.20;;;;;;;20.51;46.29;100437.84;5075712;28;20028;-55
2022/08/06 08:25:19;;;;;;;7.38;2.40;;;;;;;23.20;42.46;100438.28;5069764;28;20086;-55
2022/08/06 08:27:45;;;;;;;3.80;1.95;;;;;;;23.29;40.31;100448.53;5074684;28;20039;-55
2022/08/06 08:30:11;;;;;;;9.88;2.30;;;;;;;22.57;40.44;100433.97;5077480;28;20455;-55
2022/08/06 08:32:36;;;;;;;8.15;2.10;;;;;;;21.93;43.14;100432.50;5074689;28;20064;-55
2022/08/06 08:35:02;;;;;;;6.90;2.47;;;;;;;22.93;41.08;100440.84;5073188;28;20024;-54
2022/08/06 08:37:28;;;;;;;5.38;2.00;;;;;;;22.46;41.58;100432.47;5075005;28;20425;-54
2022/08/06 08:39:53;;;;;;;10.48;2.63;;;;;;;20.58;43.78;100432.94;5074459;28;20082;-54
2022/08/06 08:42:23;;;;;;;10.25;2.47;;;;;;;20.82;45.24;100433.91;5074673;28;20090;-52
2022/08/06 08:44:49;;;;;;;3.22;1.83;;;;;;;22.08;42.92;100432.34;5073266;28;20107;-54
2022/08/06 08:47:14;;;;;;;10.00;2.95;;;;;;;23.62;40.19;100431.03;5056426;28;20475;-54
2022/08/06 08:49:46;;;;;;;5.45;2.10;;;;;;;23.67;40.01;100432.88;5073617;28;20039;-54
2022/08/06 08:52:16;;;;;;;6.65;1.95;;;;;;;23.62;40.68;100438.44;5074695;28;20029;-55
2022/08/06 08:54:44;;;;;;;6.00;1.92;;;;;;;23.95;40.00;100433.75;5074127;28;20028;-55
2022/08/06 08:57:09;;;;;;;8.25;1.80;;;;;;;23.52;39.59;100433.94;5073308;28;20048;-55
2022/08/06 08:59:35;;;;;;;5.05;2.00;;;;;;;24.26;38.03;100434.00;5039618;28;20039;-56
2022/08/06 09:02:01;;;;;;;8.18;2.03;;;;;;;25.60;36.59;100429.88;5073887;28;20441;-53
2022/08/06 09:04:26;;;;;;;9.32;1.90;;;;;;;25.43;36.71;100438.00;5073319;28;20045;-53
2022/08/06 09:06:52;;;;;;;4.72;1.77;;;;;;;25.78;36.35;100443.69;5074162;28;20020;-53
2022/08/06 09:09:17;;;;;;;7.88;2.20;;;;;;;23.95;38.45;100439.22;5073507;28;20028;-53
2022/08/06 09:11:43;;;;;;;6.72;2.03;;;;;;;24.37;38.77;100434.59;5074105;28;20021;-54
2022/08/06 09:14:08;;;;;;;5.72;1.90;;;;;;;25.17;36.60;100441.34;5073851;28;20032;-54
2022/08/06 09:16:34;;;;;;;5.22;1.88;;;;;;;25.65;35.55;100450.09;5073809;28;20032;-55
2022/08/06 09:19:00;;;;;;;6.20;1.92;;;;;;;22.72;39.82;100445.81;5076888;28;20501;-52
2022/08/06 09:21:27;;;;;;;5.43;2.03;;;;;;;23.83;38.55;100436.16;5072459;28;20036;-54
2022/08/06 09:23:52;;;;;;;6.53;1.90;;;;;;;24.26;37.32;100436.72;5077365;28;20059;-54
2022/08/06 09:26:18;;;;;;;5.70;1.92;;;;;;;22.46;40.28;100446.13;5066448;28;20051;-55
2022/08/06 09:28:43;;;;;;;8.25;1.63;;;;;;;24.64;36.10;100442.00;5082294;28;20039;-52
2022/08/06 09:31:09;;;;;;;4.18;1.80;;;;;;;25.27;34.98;100445.00;5072933;28;20028;-54
2022/08/06 09:33:39;;;;;;;4.95;1.75;;;;;;;25.95;34.92;100449.31;5071926;28;20040;-53
2022/08/06 09:36:07;;;;;;;5.38;1.73;;;;;;;24.97;35.73;100448.09;5073877;28;20027;-54
2022/08/06 09:38:47;;;;;;;5.25;1.90;;;;;;;23.65;38.26;100448.78;5072889;28;20033;-55
2022/08/06 09:41:13;;;;;;;3.67;1.85;;;;;;;24.28;37.43;100442.69;5073585;28;20051;-53
2022/08/06 09:43:38;;;;;;;5.75;1.80;;;;;;;24.30;36.39;100450.63;5080833;28;20407;-53
2022/08/06 09:46:04;;;;;;;6.05;1.77;;;;;;;25.25;35.46;100442.53;5073545;28;20025;-54
2022/08/06 09:48:30;;;;;;;6.30;1.90;;;;;;;23.79;37.77;100444.19;5072786;28;20119;-56
2022/08/06 09:50:55;;;;;;;6.20;1.80;;;;;;;24.35;36.02;100441.47;5073212;28;20021;-53
2022/08/06 09:53:22;;;;;;;3.17;1.65;;;;;;;24.18;37.07;100434.69;5073213;28;20039;-54
2022/08/06 09:55:52;;;;;;;8.20;1.90;;;;;;;22.38;36.63;100433.91;5073210;28;20025;-55
2022/08/06 09:58:27;;;;;;;5.03;1.60;;;;;;;22.20;38.05;100429.22;5085890;28;20073;-54
2022/08/06 10:00:53;;;;;;;6.78;1.80;;;;;;;22.33;39.03;100424.97;5073445;28;20792;-53
2022/08/06 10:03:21;;;;;;;6.45;2.08;;;;;;;23.07;38.83;100416.38;5076972;28;20494;-54
2022/08/06 10:06:01;;;;;;;4.30;1.52;;;;;;;22.29;37.29;100426.66;5074798;28;20114;-54
2022/08/06 10:08:27;;;;;;;5.03;1.70;;;;;;;21.24;39.83;100421.63;5073333;28;20051;-56
2022/08/06 10:10:52;;;;;;;6.85;1.75;;;;;;;20.93;39.58;100415.56;5072924;28;20466;-53
2022/08/06 10:13:24;;;;;;;7.35;1.80;;;;;;;21.18;40.26;100425.47;5072727;28;20024;-55
2022/08/06 10:15:51;;;;;;;5.53;1.80;;;;;;;21.70;39.48;100413.06;5072910;28;20035;-53
2022/08/06 10:18:32;;;;;;;5.43;1.70;;;;;;;21.59;40.13;100418.91;5075306;28;20036;-55
2022/08/06 10:21:26;;;;;;;9.88;1.85;;;;;;;21.04;40.30;100408.97;5072402;28;20020;-56
2022/08/06 10:23:52;;;;;;;8.25;2.05;;;;;;;22.59;40.26;100409.91;5072352;28;20517;-54
2022/08/06 10:26:26;;;;;;;8.15;1.95;;;;;;;23.09;39.25;100400.44;5058725;28;20032;-54
2022/08/06 10:28:51;;;;;;;5.05;1.83;;;;;;;23.93;37.86;100410.53;5071352;28;20016;-54
2022/08/06 10:31:17;;;;;;;5.70;1.65;;;;;;;24.08;35.94;100404.75;5070991;28;20035;-55
2022/08/06 10:34:02;;;;;;;6.18;1.70;;;;;;;24.59;36.24;100413.88;5070729;28;20021;-55
2022/08/06 10:36:53;;;;;;;8.48;1.75;;;;;;;23.28;37.50;100401.25;5072879;28;20029;-53
2022/08/06 10:39:21;;;;;;;8.27;1.80;;;;;;;25.06;35.06;100393.34;5070593;28;20078;-55
2022/08/06 10:41:46;;;;;;;4.82;1.45;;;;;;;23.64;35.86;100389.69;5071153;28;20146;-54
2022/08/06 10:44:12;;;;;;;3.88;1.58;;;;;;;23.83;34.91;100376.75;5072257;28;20024;-54
2022/08/06 10:46:37;;;;;;;8.30;1.67;;;;;;;23.31;36.59;100378.75;5071096;28;20495;-54
2022/08/06 10:49:03;;;;;;;3.05;1.60;;;;;;;21.85;38.55;100390.28;5069474;28;20032;-54
2022/08/06 10:51:28;;;;;;;4.40;1.67;;;;;;;22.81;37.70;100390.19;5055023;28;20040;-54
2022/08/06 10:53:53;;;;;;;4.78;1.55;;;;;;;22.86;38.21;100381.09;5072053;28;20028;-55
2022/08/06 10:56:19;;;;;;;9.63;1.77;;;;;;;23.07;37.71;100380.81;5070938;28;20036;-55
2022/08/06 10:58:45;;;;;;;4.50;1.70;;;;;;;22.94;37.33;100382.34;5074382;28;20411;-55
2022/08/06 11:01:19;;;;;;;4.20;1.58;;;;;;;23.86;36.61;100386.28;5070973;28;20032;-54
2022/08/06 11:03:48;;;;;;;6.53;1.80;;;;;;;23.88;36.00;100373.09;5071561;28;20053;-54
2022/08/06 11:06:24;;;;;;;5.65;1.60;;;;;;;23.47;36.24;100380.13;5072091;28;20033;-55
2022/08/06 11:08:57;;;;;;;7.40;1.65;;;;;;;23.65;34.44;100386.63;5071770;28;20051;-55
2022/08/06 11:12:12;;;;;;;5.70;1.80;;;;;;;22.67;37.24;100364.72;5076830;28;20020;-53
2022/08/06 11:14:38;;;;;;;4.35;1.60;;;;;;;21.03;37.50;100379.25;5051769;28;20491;-55
2022/08/06 11:17:03;;;;;;;5.90;1.83;;;;;;;21.72;37.91;100382.78;5072848;28;20052;-53
2022/08/06 11:19:48;;;;;;;4.35;1.63;;;;;;;22.76;37.01;100375.78;5071554;28;20032;-53
2022/08/06 11:22:32;;;;;;;7.65;1.70;;;;;;;21.89;37.89;100374.13;5070912;28;20028;-54
2022/08/06 11:24:57;;;;;;;3.20;1.50;;;;;;;21.36;38.43;100374.09;5076551;28;20428;-51
2022/08/06 11:27:52;;;;;;;7.45;1.70;;;;;;;20.47;40.50;100367.59;5074018;28;20028;-51
2022/08/06 11:30:19;;;;;;;3.25;1.60;;;;;;;20.73;40.23;100359.31;5077858;28;20131;-55
2022/08/06 11:32:49;;;;;;;5.82;1.83;;;;;;;21.21;41.05;100367.66;5070211;28;20025;-57